Time;durP1;ratioP1;P1;durP2;ratioP2;P2;SDS_P1;SDS_P2;PMS_P1;PMS_P2;Temp;Humidity;BMP_temperature;BMP_pressure;BME280_temperature;BME280_humidity;BME280_pressure;Samples;Min_cycle;Max_cycle;Signal;HPM_P1;HPM_P2
2022/06/03 00:00:24;;;;;;;5.65;2.60;;;17.50;99.90;;;;;;4997423;28;20035;-68
2022/06/03 00:03:18;;;;;;;5.80;2.45;;;17.60;99.90;;;;;;4998993;28;20049;-68
2022/06/03 00:06:05;;;;;;;4.40;2.30;;;17.60;99.90;;;;;;4999521;28;20035;-68
2022/06/03 00:08:52;;;;;;;5.82;2.10;;;17.70;99.90;;;;;;5009242;28;20038;-68
2022/06/03 00:11:55;;;;;;;7.25;2.47;;;17.70;99.90;;;;;;5002508;28;20057;-68
2022/06/03 00:14:27;;;;;;;2.58;2.00;;;17.70;99.90;;;;;;4997783;28;20524;-68
2022/06/03 00:17:12;;;;;;;6.97;2.47;;;17.80;99.90;;;;;;5009967;28;20043;-68
2022/06/03 00:19:56;;;;;;;4.32;2.17;;;17.90;99.90;;;;;;5009113;28;20614;-68
2022/06/03 00:23:02;;;;;;;4.63;2.50;;;18.00;99.90;;;;;;4999770;28;20049;-68
2022/06/03 00:25:43;;;;;;;5.15;2.40;;;18.10;99.90;;;;;;5003446;28;20038;-68
2022/06/03 00:28:08;;;;;;;7.28;2.40;;;18.10;99.90;;;;;;5012350;28;20583;-68
2022/06/03 00:31:08;;;;;;;3.75;2.13;;;18.20;99.90;;;;;;4999821;28;20049;-68
2022/06/03 00:34:00;;;;;;;3.92;2.08;;;18.10;99.90;;;;;;4985631;28;20719;-68
2022/06/03 00:36:40;;;;;;;4.25;1.95;;;17.70;99.90;;;;;;5000232;28;20176;-69
2022/06/03 00:39:30;;;;;;;6.40;1.60;;;17.60;99.90;;;;;;5007503;28;20559;-68
2022/06/03 00:42:21;;;;;;;3.70;2.30;;;17.60;99.90;;;;;;5010976;28;20037;-68
2022/06/03 00:45:22;;;;;;;4.35;1.90;;;17.50;99.90;;;;;;4987682;28;20038;-68
2022/06/03 00:48:25;;;;;;;4.72;2.17;;;17.50;99.90;;;;;;5001683;28;20049;-68
2022/06/03 00:51:20;;;;;;;6.80;2.00;;;17.50;99.90;;;;;;4988501;28;20048;-68
2022/06/03 00:53:48;;;;;;;7.85;2.00;;;17.40;99.90;;;;;;4953539;28;20043;-68
2022/06/03 00:56:52;;;;;;;3.97;2.03;;;17.30;99.90;;;;;;5009449;28;20038;-68
2022/06/03 00:59:31;;;;;;;4.68;3.08;;;17.20;99.90;;;;;;5005472;28;20072;-68
2022/06/03 01:02:18;;;;;;;8.90;2.30;;;17.10;99.90;;;;;;5000231;28;20078;-68
2022/06/03 01:05:00;;;;;;;8.27;3.08;;;17.00;99.90;;;;;;4985052;28;20048;-68
2022/06/03 01:07:44;;;;;;;6.03;2.22;;;17.10;99.90;;;;;;4999451;28;20041;-68
2022/06/03 01:10:31;;;;;;;4.80;2.00;;;17.30;99.90;;;;;;5011518;28;20085;-68
2022/06/03 01:13:25;;;;;;;2.40;1.83;;;17.40;99.90;;;;;;5002531;28;20038;-68
2022/06/03 01:16:21;;;;;;;3.67;1.88;;;17.40;99.90;;;;;;5000665;28;20110;-68
2022/06/03 01:19:03;;;;;;;5.55;2.13;;;17.50;99.90;;;;;;4986952;28;20084;-68
2022/06/03 01:21:55;;;;;;;4.78;2.38;;;17.50;99.90;;;;;;5003453;28;20045;-68
2022/06/03 01:24:35;;;;;;;3.63;1.88;;;17.50;99.90;;;;;;5010885;28;20034;-68
2022/06/03 01:27:31;;;;;;;3.92;1.90;;;17.60;99.90;;;;;;5002625;28;20042;-68
2022/06/03 01:30:00;;;;;;;4.50;2.13;;;17.60;99.90;;;;;;4999615;28;20054;-68
2022/06/03 01:32:53;;;;;;;8.93;2.22;;;17.70;99.90;;;;;;5004955;28;20072;-68
2022/06/03 01:36:03;;;;;;;2.92;1.90;;;17.80;99.90;;;;;;5004663;28;20370;-68
2022/06/03 01:38:59;;;;;;;3.50;1.95;;;17.80;99.90;;;;;;4985459;28;20517;-69
2022/06/03 01:41:34;;;;;;;6.65;2.22;;;17.80;99.90;;;;;;4995176;28;20045;-68
2022/06/03 01:44:12;;;;;;;3.25;2.00;;;17.40;99.90;;;;;;4998711;28;20065;-68
2022/06/03 01:47:07;;;;;;;2.42;2.03;;;17.30;99.90;;;;;;4994689;28;20046;-68
2022/06/03 01:49:51;;;;;;;6.35;1.90;;;17.50;99.90;;;;;;4993386;28;20117;-68
2022/06/03 01:52:58;;;;;;;3.95;2.10;;;20.20;99.90;;;;;;4993441;28;20096;-69
2022/06/03 01:55:52;;;;;;;4.78;2.05;;;17.80;99.90;;;;;;4993322;28;20050;-68
2022/06/03 01:58:48;;;;;;;4.78;2.50;;;17.80;99.90;;;;;;4994539;28;20034;-69
2022/06/03 02:01:52;;;;;;;6.72;2.17;;;17.90;99.90;;;;;;4994871;28;20042;-68
2022/06/03 02:04:21;;;;;;;4.75;2.08;;;18.10;99.90;;;;;;4994845;28;20121;-68
2022/06/03 02:07:15;;;;;;;5.15;2.17;;;18.30;99.90;;;;;;4993454;28;20034;-68
2022/06/03 02:09:55;;;;;;;3.72;2.20;;;17.90;99.90;;;;;;4992723;28;20120;-68
2022/06/03 02:12:38;;;;;;;3.08;1.67;;;17.50;99.90;;;;;;4992616;28;20057;-68
2022/06/03 02:15:37;;;;;;;5.57;1.80;;;17.40;99.90;;;;;;4993074;28;20531;-68
2022/06/03 02:18:15;;;;;;;2.28;1.75;;;17.50;99.90;;;;;;4993719;28;20500;-68
2022/06/03 02:21:10;;;;;;;5.22;2.05;;;17.60;99.90;;;;;;4993965;28;20034;-68
2022/06/03 02:23:39;;;;;;;4.05;2.03;;;18.10;99.90;;;;;;4994344;28;20562;-68
2022/06/03 02:26:26;;;;;;;4.35;2.22;;;18.30;99.90;;;;;;4994385;28;20084;-68
2022/06/03 02:32:47;;;;;;;4.87;2.10;;;18.60;99.90;;;;;;4984690;28;20085;-69
2022/06/03 02:35:37;;;;;;;5.75;2.13;;;18.80;99.90;;;;;;4994238;28;20108;-68
2022/06/03 02:38:27;;;;;;;6.00;2.22;;;18.90;99.90;;;;;;4993494;28;20525;-69
2022/06/03 02:40:59;;;;;;;6.05;2.03;;;18.60;99.90;;;;;;4994096;28;20042;-68
2022/06/03 02:43:51;;;;;;;3.40;2.08;;;18.40;99.90;;;;;;4994082;28;20066;-68
2022/06/03 02:46:28;;;;;;;6.95;1.98;;;18.30;99.90;;;;;;4994144;28;20561;-68
2022/06/03 02:49:09;;;;;;;3.70;2.10;;;18.30;99.90;;;;;;4993778;28;20053;-69
2022/06/03 02:52:11;;;;;;;3.80;2.35;;;17.90;99.90;;;;;;4993581;28;20046;-68
2022/06/03 02:55:04;;;;;;;5.93;2.15;;;17.60;99.90;;;;;;4992092;28;20054;-68
2022/06/03 02:57:56;;;;;;;4.90;2.13;;;17.60;99.90;;;;;;4992077;28;20046;-68
2022/06/03 03:00:59;;;;;;;4.15;1.85;;;17.60;99.90;;;;;;4992037;28;20026;-68
2022/06/03 03:03:52;;;;;;;7.95;2.20;;;17.80;99.90;;;;;;4992010;28;20642;-68
2022/06/03 03:06:42;;;;;;;7.15;2.67;;;17.80;99.90;;;;;;4991797;28;20543;-68
2022/06/03 03:09:14;;;;;;;4.60;2.00;;;17.60;99.90;;;;;;4992270;28;20054;-68
2022/06/03 03:12:03;;;;;;;3.60;2.03;;;17.50;99.90;;;;;;4993778;28;20034;-68
2022/06/03 03:14:48;;;;;;;5.15;2.33;;;17.50;99.90;;;;;;4993627;28;20085;-68
2022/06/03 03:17:13;;;;;;;3.67;2.28;;;17.30;99.90;;;;;;4993766;28;20577;-68
2022/06/03 03:20:00;;;;;;;4.53;2.05;;;17.20;99.90;;;;;;4993597;28;20121;-68
2022/06/03 03:23:00;;;;;;;3.00;2.17;;;17.30;99.90;;;;;;4993313;28;20041;-68
2022/06/03 03:25:50;;;;;;;2.97;1.85;;;17.50;99.90;;;;;;4993522;28;20046;-68
2022/06/03 03:28:37;;;;;;;3.60;1.60;;;17.50;99.90;;;;;;4993604;28;20129;-69
2022/06/03 03:31:09;;;;;;;3.88;1.80;;;17.50;99.90;;;;;;4993446;28;20057;-68
2022/06/03 03:34:03;;;;;;;2.90;1.73;;;17.50;99.90;;;;;;4993595;28;20042;-68
2022/06/03 03:36:57;;;;;;;6.55;2.15;;;17.40;99.90;;;;;;4993268;28;20046;-68
2022/06/03 03:39:28;;;;;;;2.55;1.60;;;17.20;99.90;;;;;;4993136;28;20130;-68
2022/06/03 03:42:32;;;;;;;4.75;1.80;;;17.20;99.90;;;;;;4993196;28;20093;-68
2022/06/03 03:45:03;;;;;;;2.83;1.80;;;17.20;99.90;;;;;;4993276;28;20041;-68
2022/06/03 03:48:06;;;;;;;3.88;2.00;;;17.40;99.90;;;;;;4993469;28;20184;-68
2022/06/03 03:50:58;;;;;;;5.18;1.75;;;17.60;99.90;;;;;;4997254;28;20470;-68
2022/06/03 03:53:55;;;;;;;4.50;1.88;;;17.70;99.90;;;;;;4997364;28;20046;-68
2022/06/03 03:56:45;;;;;;;3.65;2.10;;;17.60;99.90;;;;;;4997006;28;20038;-69
2022/06/03 03:59:29;;;;;;;2.67;1.75;;;17.60;99.90;;;;;;4996995;28;20042;-68
2022/06/03 04:02:13;;;;;;;3.08;2.08;;;17.40;99.90;;;;;;4997136;28;20034;-68
2022/06/03 04:04:53;;;;;;;5.10;2.13;;;17.20;99.90;;;;;;4997009;28;20038;-68
2022/06/03 04:07:27;;;;;;;3.88;2.10;;;17.00;99.90;;;;;;4996982;28;20100;-68
2022/06/03 04:10:27;;;;;;;3.85;2.20;;;17.10;99.90;;;;;;4996877;28;20146;-68
2022/06/03 04:12:52;;;;;;;5.45;1.90;;;17.00;99.90;;;;;;4996576;28;20041;-68
2022/06/03 04:15:30;;;;;;;3.78;2.20;;;17.00;99.90;;;;;;4996627;28;20046;-68
2022/06/03 04:18:05;;;;;;;4.38;2.30;;;17.20;99.90;;;;;;4995194;28;20450;-68
2022/06/03 04:21:03;;;;;;;5.07;1.80;;;17.20;99.90;;;;;;4996599;28;20046;-68
2022/06/03 04:24:20;;;;;;;6.00;2.55;;;17.30;99.90;;;;;;4996221;28;20045;-68
2022/06/03 04:27:07;;;;;;;8.07;3.30;;;17.40;99.90;;;;;;4916969;29;20487;-68
2022/06/03 04:29:50;;;;;;;6.28;3.00;;;17.50;99.90;;;;;;4916813;29;20062;-68
2022/06/03 04:32:53;;;;;;;8.07;3.22;;;17.40;99.90;;;;;;4981470;28;20038;-69
2022/06/03 04:35:48;;;;;;;11.20;4.45;;;17.30;99.90;;;;;;4996100;28;20583;-68
2022/06/03 04:38:32;;;;;;;8.23;4.53;;;17.30;99.90;;;;;;4979001;28;20066;-68
2022/06/03 04:41:16;;;;;;;6.57;4.75;;;17.50;99.90;;;;;;4993022;28;20038;-68
2022/06/03 04:44:36;;;;;;;5.70;2.60;;;17.60;99.90;;;;;;4996404;28;20053;-68
2022/06/03 04:47:34;;;;;;;3.73;2.17;;;17.50;99.90;;;;;;4935853;29;20047;-68
2022/06/03 04:50:28;;;;;;;3.08;1.85;;;17.30;99.90;;;;;;4986975;28;20085;-68
2022/06/03 04:53:32;;;;;;;4.60;2.65;;;17.10;99.90;;;;;;4996289;28;20397;-68
2022/06/03 04:56:19;;;;;;;5.80;2.35;;;17.10;99.90;;;;;;4975083;28;20034;-68
2022/06/03 04:59:06;;;;;;;4.18;2.67;;;17.00;99.90;;;;;;4996131;28;20616;-68
2022/06/03 05:02:09;;;;;;;5.13;2.88;;;17.00;99.90;;;;;;4995677;28;20125;-68
2022/06/03 05:04:40;;;;;;;6.00;2.40;;;17.10;99.90;;;;;;4996065;28;20520;-68
2022/06/03 05:07:24;;;;;;;6.07;2.60;;;17.00;99.90;;;;;;4996029;28;20046;-68
2022/06/03 05:10:08;;;;;;;5.47;2.50;;;16.80;99.90;;;;;;4995868;28;20074;-68
2022/06/03 05:12:39;;;;;;;5.25;2.60;;;16.70;99.90;;;;;;4995952;28;20038;-68
2022/06/03 05:16:10;;;;;;;8.48;3.10;;;16.60;99.90;;;;;;4995795;28;20039;-68
2022/06/03 05:19:02;;;;;;;4.70;2.60;;;16.80;99.90;;;;;;4931119;29;20044;-69
2022/06/03 05:21:37;;;;;;;5.18;2.72;;;16.90;99.90;;;;;;4995469;28;20038;-68
2022/06/03 05:24:40;;;;;;;4.65;2.70;;;17.00;99.90;;;;;;4995721;28;20121;-68
2022/06/03 05:27:18;;;;;;;11.38;4.30;;;17.10;99.90;;;;;;4995559;28;20042;-68
2022/06/03 05:29:58;;;;;;;6.65;3.45;;;17.30;99.90;;;;;;4995352;28;20046;-68
2022/06/03 05:32:39;;;;;;;7.82;4.18;;;17.40;99.90;;;;;;4994253;28;20429;-68
2022/06/03 05:35:04;;;;;;;;;;;17.50;99.90;;;;;;4995764;28;20042;-68
2022/06/03 05:37:36;;;;;;;15.43;4.50;;;17.60;99.90;;;;;;4993508;28;19977;-68
2022/06/03 05:40:26;;;;;;;6.38;3.40;;;17.60;99.90;;;;;;4992551;28;20137;-68
2022/06/03 05:43:11;;;;;;;6.35;3.65;;;17.60;99.90;;;;;;4980820;28;20409;-68
2022/06/03 05:45:45;;;;;;;6.30;3.35;;;17.60;99.90;;;;;;4993549;28;20118;-68
2022/06/03 05:48:23;;;;;;;8.02;3.60;;;17.60;99.90;;;;;;4994713;28;20401;-69
2022/06/03 05:51:16;;;;;;;5.50;3.22;;;17.70;99.90;;;;;;4994774;28;20136;-68
2022/06/03 05:54:01;;;;;;;6.47;3.85;;;17.80;99.90;;;;;;4994612;28;20038;-69
2022/06/03 05:56:31;;;;;;;5.97;4.05;;;17.90;99.90;;;;;;4995185;28;20050;-69
2022/06/03 05:59:16;;;;;;;6.60;3.63;;;18.00;99.90;;;;;;4994844;28;20081;-68
2022/06/03 06:02:03;;;;;;;7.97;3.80;;;18.20;99.90;;;;;;4994732;28;20034;-68
2022/06/03 06:04:48;;;;;;;9.43;3.83;;;18.30;99.90;;;;;;4994716;28;20112;-69
2022/06/03 06:07:34;;;;;;;8.32;4.55;;;18.50;99.90;;;;;;4994660;28;20077;-69
2022/06/03 06:10:08;;;;;;;7.25;3.83;;;18.70;99.90;;;;;;4994693;28;20460;-69
2022/06/03 06:13:08;;;;;;;7.15;3.35;;;18.50;99.90;;;;;;4994789;28;20038;-69
2022/06/03 06:15:58;;;;;;;5.55;2.60;;;18.30;99.90;;;;;;4994193;28;20100;-68
2022/06/03 06:18:55;;;;;;;5.00;2.60;;;18.00;99.90;;;;;;4993036;28;20046;-69
2022/06/03 06:21:27;;;;;;;5.57;2.40;;;17.90;99.90;;;;;;4992977;28;20133;-69
2022/06/03 06:24:12;;;;;;;5.97;2.50;;;17.80;99.90;;;;;;4991643;28;20043;-69
2022/06/03 06:27:07;;;;;;;6.72;2.50;;;17.90;99.90;;;;;;4993213;28;20077;-69
2022/06/03 06:29:57;;;;;;;3.20;2.50;;;17.90;99.90;;;;;;4994685;28;20046;-69
2022/06/03 06:32:36;;;;;;;4.93;2.45;;;18.00;99.90;;;;;;4993965;28;20038;-68
2022/06/03 06:35:29;;;;;;;6.22;2.63;;;18.00;99.90;;;;;;4994121;28;20413;-67
2022/06/03 06:38:29;;;;;;;4.68;2.70;;;18.10;99.90;;;;;;4992337;28;20456;-68
2022/06/03 06:41:20;;;;;;;6.35;3.30;;;18.10;99.90;;;;;;4960568;28;20049;-68
2022/06/03 06:43:50;;;;;;;9.05;3.13;;;18.20;99.90;;;;;;4991791;28;20050;-68
2022/06/03 06:46:56;;;;;;;10.68;3.50;;;18.20;99.90;;;;;;4992357;28;20046;-68
2022/06/03 06:49:58;;;;;;;5.90;2.70;;;18.30;99.90;;;;;;4991011;28;20049;-68
2022/06/03 06:52:29;;;;;;;7.00;3.05;;;18.50;99.90;;;;;;4965937;28;20054;-69
2022/06/03 06:55:02;;;;;;;5.82;3.17;;;18.60;99.90;;;;;;4974312;28;20580;-68
2022/06/03 06:57:49;;;;;;;12.45;3.08;;;18.70;99.90;;;;;;4979196;28;20053;-68
2022/06/03 07:00:25;;;;;;;6.35;3.33;;;18.80;99.90;;;;;;4993827;28;20434;-68
2022/06/03 07:03:20;;;;;;;8.80;3.58;;;19.00;99.90;;;;;;4993937;28;20774;-68
2022/06/03 07:06:11;;;;;;;7.15;3.05;;;19.20;99.90;;;;;;4993698;28;20030;-69
2022/06/03 07:08:47;;;;;;;12.80;3.10;;;;;;;;;;4993346;28;20050;-68
2022/06/03 07:11:36;;;;;;;4.78;2.83;;;19.60;99.90;;;;;;4992753;28;20509;-68
2022/06/03 07:14:10;;;;;;;15.32;2.97;;;19.70;99.90;;;;;;4993723;28;20394;-69
2022/06/03 07:19:48;;;;;;;7.53;3.05;;;19.80;99.90;;;;;;4993234;28;20034;-68
2022/06/03 07:22:16;;;;;;;10.68;3.08;;;19.90;99.90;;;;;;4992934;28;20042;-68
2022/06/03 07:24:48;;;;;;;6.68;2.70;;;20.00;99.90;;;;;;4993502;28;20034;-67
2022/06/03 07:27:24;;;;;;;6.90;2.72;;;20.00;99.90;;;;;;4993673;28;20501;-68
2022/06/03 07:30:12;;;;;;;2.88;2.17;;;19.90;99.90;;;;;;4993638;28;20394;-68
2022/06/03 07:32:48;;;;;;;6.80;2.10;;;19.80;99.90;;;;;;4993564;28;20038;-68
2022/06/03 07:35:18;;;;;;;5.85;2.63;;;19.70;99.90;;;;;;4993487;28;20034;-68
2022/06/03 07:37:48;;;;;;;6.65;2.75;;;19.90;99.90;;;;;;4993446;28;20169;-68
2022/06/03 07:40:32;;;;;;;5.82;2.40;;;20.40;99.90;;;;;;4993400;28;20046;-68
2022/06/03 07:43:01;;;;;;;4.20;1.85;;;;;;;;;;4993410;28;20042;-68
2022/06/03 07:45:42;;;;;;;7.88;2.53;;;21.20;99.90;;;;;;4993442;28;20038;-69
2022/06/03 07:48:14;;;;;;;;;;;21.10;99.90;;;;;;4994060;28;20030;-68
2022/06/03 07:50:53;;;;;;;5.57;2.38;;;21.10;99.90;;;;;;4993351;28;19971;-69
2022/06/03 07:53:45;;;;;;;7.45;3.00;;;21.00;99.90;;;;;;4993263;28;20050;-69
2022/06/03 07:56:11;;;;;;;6.20;2.45;;;21.10;99.90;;;;;;4992748;28;20046;-69
2022/06/03 07:58:38;;;;;;;9.55;2.90;;;21.20;99.90;;;;;;4993188;28;20058;-69
2022/06/03 08:01:27;;;;;;;5.68;2.47;;;21.20;99.90;;;;;;4993286;28;20038;-68
2022/06/03 08:03:53;;;;;;;7.97;2.55;;;21.30;99.90;;;;;;4993134;28;20097;-69
2022/06/03 08:12:38;;;;;;;5.90;2.58;;;22.10;99.90;;;;;;4993160;28;20571;-69
2022/06/03 08:15:19;;;;;;;9.52;3.17;;;21.70;99.90;;;;;;4993237;28;20042;-69
2022/06/03 08:17:47;;;;;;;4.95;2.60;;;21.40;99.90;;;;;;4993221;28;20170;-69
2022/06/03 08:20:16;;;;;;;7.72;2.75;;;21.50;99.90;;;;;;4993226;28;20548;-68
2022/06/03 08:22:44;;;;;;;6.13;2.90;;;21.70;99.90;;;;;;4992714;28;20042;-69
2022/06/03 08:25:18;;;;;;;7.75;2.90;;;21.80;99.90;;;;;;4993394;28;20042;-69
2022/06/03 08:27:46;;;;;;;7.10;2.20;;;22.00;99.90;;;;;;4993167;28;20049;-68
2022/06/03 08:30:17;;;;;;;6.13;2.70;;;22.70;99.90;;;;;;4993039;28;20054;-69
2022/06/03 08:33:06;;;;;;;4.95;2.47;;;23.20;99.90;;;;;;4991668;28;20584;-69
2022/06/03 08:35:35;;;;;;;7.32;2.88;;;22.80;99.90;;;;;;4994501;28;20042;-69
2022/06/03 08:38:06;;;;;;;7.68;2.70;;;22.90;99.90;;;;;;4996563;28;20389;-69
2022/06/03 08:40:41;;;;;;;;;;;22.70;99.90;;;;;;4996863;28;20042;-69
2022/06/03 08:43:26;;;;;;;5.05;2.30;;;22.80;99.90;;;;;;4996236;28;20008;-69
2022/06/03 08:46:12;;;;;;;5.25;2.38;;;23.00;99.90;;;;;;4992977;28;20054;-69
2022/06/03 08:48:42;;;;;;;7.38;2.55;;;22.80;99.90;;;;;;4996388;28;20026;-69
2022/06/03 08:51:49;;;;;;;6.40;2.72;;;23.00;99.90;;;;;;4996235;28;20062;-69
2022/06/03 08:54:21;;;;;;;4.40;2.47;;;22.80;99.90;;;;;;4990939;28;20134;-68
2022/06/03 08:56:50;;;;;;;6.93;3.00;;;22.70;99.90;;;;;;4996216;28;20472;-69
2022/06/03 08:59:22;;;;;;;5.50;3.13;;;22.70;99.90;;;;;;4996173;28;20584;-69
2022/06/03 09:01:55;;;;;;;5.07;2.85;;;23.00;99.90;;;;;;4996073;28;20088;-69
2022/06/03 09:04:21;;;;;;;7.57;3.25;;;23.40;99.90;;;;;;4995980;28;20413;-69
2022/06/03 09:07:10;;;;;;;8.45;2.97;;;22.90;99.90;;;;;;4995809;28;20129;-68
2022/06/03 09:09:42;;;;;;;7.55;2.75;;;22.90;99.90;;;;;;4995731;28;20054;-69
2022/06/03 09:12:29;;;;;;;5.00;2.90;;;23.00;99.90;;;;;;4995932;28;20035;-69
2022/06/03 09:15:01;;;;;;;9.02;3.13;;;23.30;99.90;;;;;;4995715;28;20445;-69
2022/06/03 09:17:54;;;;;;;6.85;3.38;;;24.20;99.90;;;;;;4995794;28;20531;-69
2022/06/03 09:20:50;;;;;;;4.20;3.05;;;24.90;99.90;;;;;;4995801;28;20401;-69
2022/06/03 09:23:20;;;;;;;4.38;2.40;;;24.50;99.90;;;;;;4995683;28;20124;-69
2022/06/03 09:25:52;;;;;;;7.47;2.83;;;24.50;99.90;;;;;;4995620;28;20112;-69
2022/06/03 09:28:36;;;;;;;9.88;3.30;;;24.10;99.90;;;;;;4995576;28;20571;-69
2022/06/03 09:31:07;;;;;;;6.45;3.47;;;23.50;99.90;;;;;;4995553;28;20061;-69
2022/06/03 09:33:33;;;;;;;5.57;3.17;;;23.50;99.90;;;;;;4995523;28;20046;-69
2022/06/03 09:36:05;;;;;;;6.38;2.80;;;23.70;99.90;;;;;;4995350;28;20121;-69
2022/06/03 09:38:47;;;;;;;7.40;3.13;;;23.90;99.90;;;;;;4994735;28;20476;-69
2022/06/03 09:41:13;;;;;;;7.05;2.97;;;24.00;99.90;;;;;;4976220;28;20038;-69
2022/06/03 09:43:44;;;;;;;11.02;3.10;;;24.30;99.90;;;;;;4982893;28;20381;-68
2022/06/03 09:46:11;;;;;;;;;;;25.00;99.90;;;;;;4991991;28;20049;-69
2022/06/03 09:48:39;;;;;;;6.57;3.05;;;24.70;99.90;;;;;;4993336;28;19920;-69
2022/06/03 09:51:55;;;;;;;8.00;3.17;;;24.60;99.90;;;;;;4993708;28;20050;-68
2022/06/03 09:54:18;;;;;;;10.88;2.95;;;24.80;99.90;;;;;;4994784;28;20034;-69
2022/06/03 09:56:48;;;;;;;8.13;2.92;;;24.70;99.90;;;;;;4994916;28;20046;-68
2022/06/03 09:59:14;;;;;;;12.70;3.97;;;24.40;99.90;;;;;;4995210;28;20049;-69
2022/06/03 10:01:39;;;;;;;6.57;3.20;;;24.30;99.90;;;;;;4994950;28;20266;-70
2022/06/03 10:04:07;;;;;;;10.57;3.85;;;24.30;99.90;;;;;;4995030;28;20057;-70
2022/06/03 10:06:50;;;;;;;8.88;4.00;;;24.30;99.90;;;;;;4994656;28;20125;-70
2022/06/03 10:17:47;;;;;;;7.88;3.63;;;24.90;99.90;;;;;;4992509;28;20129;-68
2022/06/03 10:20:13;;;;;;;12.85;4.22;;;24.80;99.90;;;;;;4992118;28;20048;-69
2022/06/03 10:22:40;;;;;;;10.93;3.80;;;24.60;99.90;;;;;;4992514;28;20056;-69
2022/06/03 10:25:07;;;;;;;6.93;3.45;;;24.20;99.90;;;;;;4992406;28;20042;-69
2022/06/03 10:27:34;;;;;;;11.32;3.60;;;23.80;99.90;;;;;;4994123;28;20445;-68
2022/06/03 10:30:00;;;;;;;12.40;3.65;;;23.70;99.90;;;;;;4974132;28;20053;-69
2022/06/03 10:32:26;;;;;;;7.65;3.90;;;23.60;99.90;;;;;;4992330;28;20046;-68
2022/06/03 10:34:56;;;;;;;9.25;4.43;;;23.60;99.90;;;;;;4992813;28;20088;-68
2022/06/03 10:37:26;;;;;;;8.82;5.28;;;23.70;99.90;;;;;;4993911;28;20034;-69
2022/06/03 10:39:57;;;;;;;9.88;5.22;;;23.60;99.90;;;;;;4992512;28;20137;-68
2022/06/03 10:42:24;;;;;;;8.00;5.53;;;23.50;99.90;;;;;;4991680;28;20124;-69
2022/06/03 10:44:56;;;;;;;11.00;5.53;;;23.40;99.90;;;;;;4991898;28;20716;-69
2022/06/03 10:47:32;;;;;;;8.10;4.30;;;23.40;99.90;;;;;;4989360;28;20037;-69
2022/06/03 10:50:00;;;;;;;11.80;5.53;;;23.30;99.90;;;;;;4992779;28;20058;-68
2022/06/03 11:01:21;;;;;;;9.85;4.45;;;24.20;99.90;;;;;;4993504;28;19956;-68
2022/06/03 11:03:51;;;;;;;8.25;4.72;;;24.00;99.90;;;;;;4993660;28;20490;-68
2022/06/03 11:06:22;;;;;;;7.80;4.85;;;24.20;99.90;;;;;;4992565;28;20565;-68
2022/06/03 11:08:53;;;;;;;13.15;5.03;;;24.30;99.90;;;;;;4991945;28;20034;-69
2022/06/03 11:11:32;;;;;;;;;;;24.70;99.90;;;;;;4992186;28;20046;-69
2022/06/03 11:13:58;;;;;;;8.77;4.60;;;25.00;99.90;;;;;;4992845;28;19945;-68
2022/06/03 11:16:26;;;;;;;9.45;4.38;;;;;;;;;;4991785;28;20057;-69
2022/06/03 11:18:52;;;;;;;9.95;4.95;;;24.50;99.90;;;;;;4991312;28;20030;-68
2022/06/03 11:21:29;;;;;;;8.43;4.03;;;24.40;99.90;;;;;;4992977;28;20560;-68
2022/06/03 11:23:59;;;;;;;8.88;4.47;;;24.90;99.90;;;;;;4993483;28;20038;-68
2022/06/03 11:26:31;;;;;;;13.52;5.53;;;24.90;99.90;;;;;;4993737;28;20440;-69
2022/06/03 11:29:08;;;;;;;11.38;4.75;;;25.10;99.90;;;;;;4993599;28;20038;-69
2022/06/03 11:31:41;;;;;;;11.05;5.93;;;25.50;99.90;;;;;;4993669;28;20046;-68
2022/06/03 11:34:35;;;;;;;12.07;6.70;;;25.70;99.90;;;;;;4993616;28;20038;-68
2022/06/03 11:37:13;;;;;;;9.23;5.28;;;25.50;99.90;;;;;;4993525;28;20513;-68
2022/06/03 11:39:41;;;;;;;14.85;6.80;;;25.90;99.90;;;;;;4993552;28;20053;-69
2022/06/03 11:42:15;;;;;;;9.05;6.15;;;25.90;99.20;;;;;;4993279;28;20045;-69
2022/06/03 11:44:50;;;;;;;9.63;5.40;;;26.00;99.90;;;;;;4993183;28;20065;-69
2022/06/03 11:47:25;;;;;;;10.35;7.13;;;25.70;99.90;;;;;;4993550;28;20049;-69
2022/06/03 11:49:52;;;;;;;13.82;6.85;;;25.50;99.70;;;;;;4993433;28;20112;-69
2022/06/03 11:52:18;;;;;;;12.05;6.05;;;25.50;99.90;;;;;;4993413;28;20421;-69
2022/06/03 11:54:45;;;;;;;12.68;8.50;;;25.80;99.90;;;;;;4993451;28;20050;-68
2022/06/03 11:57:12;;;;;;;16.85;7.88;;;25.60;99.80;;;;;;4993482;28;20366;-68
2022/06/03 11:59:52;;;;;;;19.73;8.45;;;25.60;99.90;;;;;;4993635;28;20038;-69
2022/06/03 12:02:24;;;;;;;21.08;7.28;;;25.50;99.60;;;;;;4993815;28;20405;-69
2022/06/03 12:04:58;;;;;;;14.70;7.45;;;25.70;99.80;;;;;;4993301;28;20046;-69
2022/06/03 12:07:40;;;;;;;14.35;8.15;;;25.40;99.40;;;;;;4993222;28;20066;-69
2022/06/03 12:10:30;;;;;;;19.30;8.93;;;25.50;99.70;;;;;;4995874;28;20050;-69
2022/06/03 12:13:17;;;;;;;17.65;8.90;;;25.70;99.60;;;;;;4996998;28;20046;-68
2022/06/03 12:15:56;;;;;;;16.77;8.70;;;25.50;99.90;;;;;;4996979;28;20125;-69
2022/06/03 12:18:42;;;;;;;27.02;8.15;;;25.60;99.70;;;;;;4997009;28;20043;-69
2022/06/03 12:21:35;;;;;;;14.20;7.65;;;25.70;98.70;;;;;;4995244;28;20072;-68
2022/06/03 12:24:31;;;;;;;8.95;5.68;;;25.60;99.10;;;;;;4977185;28;20120;-69
2022/06/03 12:27:01;;;;;;;15.63;6.85;;;25.90;99.60;;;;;;4977098;28;20039;-69
2022/06/03 12:29:38;;;;;;;17.75;5.57;;;25.90;99.10;;;;;;4977097;28;20509;-69
2022/06/03 12:32:21;;;;;;;11.00;4.95;;;25.80;98.90;;;;;;4977140;28;20109;-69
2022/06/03 12:34:47;;;;;;;10.38;4.38;;;26.20;98.10;;;;;;4976990;28;20419;-68
2022/06/03 12:37:28;;;;;;;8.82;4.07;;;26.30;98.00;;;;;;4976947;28;20074;-70
2022/06/03 12:40:02;;;;;;;13.70;4.70;;;26.50;97.90;;;;;;4976944;28;20142;-69
2022/06/03 12:42:40;;;;;;;10.90;4.75;;;26.60;97.90;;;;;;4979019;28;20498;-69
2022/06/03 12:45:12;;;;;;;11.23;4.53;;;26.50;97.50;;;;;;4976935;28;20523;-69
2022/06/03 12:47:43;;;;;;;11.85;4.30;;;26.40;98.00;;;;;;4994240;28;20050;-68
2022/06/03 12:50:18;;;;;;;10.68;4.30;;;27.20;97.80;;;;;;4994233;28;20057;-69
2022/06/03 12:52:45;;;;;;;13.75;4.53;;;27.00;97.30;;;;;;4994287;28;20038;-69
2022/06/03 12:55:32;;;;;;;16.02;4.68;;;27.20;97.10;;;;;;4993778;28;20046;-69
2022/06/03 12:58:52;;;;;;;11.95;3.90;;;26.90;97.60;;;;;;4993631;28;20034;-69
2022/06/03 13:01:34;;;;;;;9.75;3.42;;;27.00;97.60;;;;;;4989096;28;20100;-69
2022/06/03 13:04:34;;;;;;;12.68;4.55;;;27.50;97.40;;;;;;4993848;28;20038;-69
2022/06/03 13:07:31;;;;;;;9.77;4.00;;;27.10;96.60;;;;;;4994746;28;20038;-68
2022/06/03 13:10:18;;;;;;;10.75;4.10;;;27.00;96.10;;;;;;4980158;28;20113;-68
2022/06/03 13:12:48;;;;;;;10.35;3.83;;;26.90;95.90;;;;;;4995604;28;20042;-69
2022/06/03 13:15:16;;;;;;;10.10;4.13;;;27.50;96.40;;;;;;4995702;28;20049;-69
2022/06/03 13:17:58;;;;;;;14.65;3.53;;;27.50;94.40;;;;;;4995678;28;20034;-69
2022/06/03 13:20:44;;;;;;;12.05;3.58;;;27.40;95.40;;;;;;4995045;28;20490;-69
2022/06/03 13:23:29;;;;;;;12.38;3.95;;;27.50;95.00;;;;;;4990937;28;20648;-69
2022/06/03 13:26:16;;;;;;;15.25;4.35;;;27.50;95.30;;;;;;4976716;28;20034;-69
2022/06/03 13:28:43;;;;;;;11.85;3.80;;;27.60;94.70;;;;;;4956380;28;20049;-69
2022/06/03 13:31:12;;;;;;;14.60;4.47;;;27.70;94.70;;;;;;4994371;28;20097;-68
2022/06/03 13:33:59;;;;;;;10.55;4.00;;;28.00;94.30;;;;;;4994745;28;20042;-69
2022/06/03 13:36:36;;;;;;;15.27;4.20;;;28.10;94.80;;;;;;4993916;28;20050;-69
2022/06/03 13:39:04;;;;;;;10.15;3.53;;;28.20;93.80;;;;;;4983204;28;20038;-69
2022/06/03 13:44:46;;;;;;;11.50;3.58;;;28.30;93.10;;;;;;4993696;28;20038;-68
2022/06/03 13:47:23;;;;;;;11.18;3.92;;;28.10;92.70;;;;;;4995311;28;20054;-69
2022/06/03 13:50:04;;;;;;;12.43;3.67;;;27.40;92.50;;;;;;4976186;28;20049;-68
2022/06/03 13:52:36;;;;;;;12.82;3.90;;;27.20;93.20;;;;;;4992865;28;20042;-68
2022/06/03 13:55:26;;;;;;;11.57;3.70;;;27.00;93.20;;;;;;4993345;28;20149;-68
2022/06/03 13:58:05;;;;;;;14.82;3.83;;;26.80;92.80;;;;;;4994703;28;20042;-68
2022/06/03 14:00:48;;;;;;;14.77;3.60;;;26.80;93.00;;;;;;4993928;28;20046;-68
2022/06/03 14:03:22;;;;;;;16.98;5.00;;;26.60;92.80;;;;;;4995047;28;20090;-68
2022/06/03 14:05:51;;;;;;;16.13;4.13;;;26.60;92.70;;;;;;4994659;28;20050;-68
2022/06/03 14:08:33;;;;;;;18.80;4.65;;;26.50;92.50;;;;;;4995033;28;20456;-68
2022/06/03 14:11:13;;;;;;;13.23;3.80;;;26.80;92.30;;;;;;4994601;28;20540;-69
2022/06/03 14:13:56;;;;;;;;;;;26.90;92.50;;;;;;4994745;28;20540;-69
2022/06/03 14:16:28;;;;;;;16.73;4.63;;;26.90;92.60;;;;;;4993261;28;19909;-68
2022/06/03 14:19:00;;;;;;;16.02;4.28;;;27.10;92.80;;;;;;4994391;28;20050;-68
2022/06/03 14:21:38;;;;;;;11.60;3.10;;;27.10;93.00;;;;;;4993988;28;20375;-67
2022/06/03 14:24:28;;;;;;;15.18;4.35;;;27.20;92.40;;;;;;4992554;28;20049;-68
2022/06/03 14:27:13;;;;;;;13.05;3.67;;;27.10;92.30;;;;;;4991222;28;20038;-68
2022/06/03 14:29:52;;;;;;;19.30;3.85;;;27.20;92.40;;;;;;4993091;28;20505;-68
2022/06/03 14:32:23;;;;;;;28.15;15.02;;;27.10;91.60;;;;;;4985358;28;20092;-68